createdAt,value
2023-04-08T00:01:24.843Z,4.45
2023-04-08T00:06:28.421Z,4.75
2023-04-08T00:11:33.654Z,4.18
2023-04-08T00:16:37.143Z,4.07
2023-04-08T00:21:40.801Z,4.25
2023-04-08T00:26:45.753Z,3.70
2023-04-08T00:36:52.410Z,4.07
2023-04-08T00:41:57.794Z,3.50
2023-04-08T00:47:01.447Z,3.97
2023-04-08T00:52:04.952Z,3.63
2023-04-08T00:57:10.016Z,4.10
2023-04-08T01:02:20.492Z,3.80
2023-04-08T01:07:29.072Z,3.63
2023-04-08T01:12:38.569Z,4.18
2023-04-08T01:17:43.486Z,3.78
2023-04-08T01:28:01.515Z,3.50
2023-04-08T01:33:06.964Z,3.50
2023-04-08T01:38:12.586Z,4.18
2023-04-08T01:43:19.348Z,4.40
2023-04-08T01:48:23.586Z,3.90
2023-04-08T01:53:27.136Z,4.15
2023-04-08T01:58:38.681Z,4.10
2023-04-08T02:03:45.801Z,3.20
2023-04-08T02:08:49.559Z,3.83
2023-04-08T02:13:55.558Z,3.88
2023-04-08T02:19:04.912Z,4.20
2023-04-08T02:24:11.650Z,3.58
2023-04-08T02:29:17.713Z,3.80
2023-04-08T02:34:23.270Z,3.63
2023-04-08T02:39:33.380Z,3.75
2023-04-08T02:44:38.364Z,3.55
2023-04-08T02:54:45.093Z,4.03
2023-04-08T02:59:49.941Z,4.50
2023-04-08T03:04:53.537Z,4.40
2023-04-08T03:09:57.104Z,4.05
2023-04-08T03:15:03.694Z,4.32
2023-04-08T03:20:08.548Z,4.25
2023-04-08T03:25:12.020Z,4.60
2023-04-08T03:30:18.318Z,3.85
2023-04-08T03:35:21.937Z,3.95
2023-04-08T03:40:25.680Z,3.90
2023-04-08T03:45:30.525Z,4.97
2023-04-08T03:50:34.153Z,4.15
2023-04-08T03:55:37.611Z,3.78
2023-04-08T04:00:42.450Z,3.80
2023-04-08T04:05:45.891Z,4.07
2023-04-08T04:10:49.338Z,4.32
2023-04-08T04:15:54.126Z,4.10
2023-04-08T04:20:57.600Z,4.63
2023-04-08T04:26:01.414Z,5.43
2023-04-08T04:31:06.450Z,5.00
2023-04-08T04:36:10.037Z,5.57
2023-04-08T04:41:13.557Z,7.28
2023-04-08T04:46:18.529Z,6.95
2023-04-08T04:51:22.001Z,6.78
2023-04-08T04:56:26.625Z,5.43
2023-04-08T05:01:31.737Z,5.13
2023-04-08T05:06:35.487Z,5.18
2023-04-08T05:11:39.577Z,4.68
2023-04-08T05:16:44.679Z,5.03
2023-04-08T05:21:48.118Z,4.90
2023-04-08T05:26:53.463Z,5.40
2023-04-08T05:31:58.380Z,5.47
2023-04-08T05:37:01.914Z,5.35
2023-04-08T05:42:05.765Z,5.33
2023-04-08T05:47:10.691Z,5.85
2023-04-08T05:52:14.259Z,6.00
2023-04-08T05:57:18.049Z,6.45
2023-04-08T06:02:23.116Z,6.22
2023-04-08T06:07:26.670Z,6.40
2023-04-08T06:12:30.233Z,6.18
2023-04-08T06:17:37.514Z,5.63
2023-04-08T06:22:41.219Z,6.55
2023-04-08T06:27:44.638Z,5.90
2023-04-08T06:32:49.572Z,6.53
2023-04-08T06:37:52.992Z,6.38
2023-04-08T06:42:56.629Z,6.25
2023-04-08T06:48:01.684Z,6.88
2023-04-08T06:53:05.204Z,6.40
2023-04-08T06:58:08.713Z,6.40
2023-04-08T07:03:13.706Z,5.38
2023-04-08T07:08:18.004Z,5.88
2023-04-08T07:13:23.772Z,6.05
2023-04-08T07:18:28.668Z,6.13
2023-04-08T07:23:32.127Z,5.60
2023-04-08T07:28:35.610Z,5.70
2023-04-08T07:33:40.525Z,5.43
2023-04-08T07:38:43.937Z,5.45
2023-04-08T07:43:47.537Z,5.05
2023-04-08T07:48:53.148Z,4.32
2023-04-08T07:53:57.204Z,3.95
2023-04-08T07:59:00.668Z,4.30
2023-04-08T08:04:06.004Z,4.03
2023-04-08T08:09:09.580Z,3.67
2023-04-08T08:14:14.042Z,4.00
2023-04-08T08:19:18.901Z,4.28
2023-04-08T08:24:22.726Z,4.15
2023-04-08T08:29:26.484Z,3.60
2023-04-08T08:34:31.909Z,3.97
2023-04-08T08:39:35.613Z,4.00
2023-04-08T08:49:44.334Z,3.92
2023-04-08T08:54:47.788Z,3.85
2023-04-08T08:59:51.475Z,4.03
2023-04-08T09:05:01.369Z,3.17
2023-04-08T09:10:07.368Z,3.45
2023-04-08T09:15:11.911Z,3.30
2023-04-08T09:20:17.042Z,3.00
2023-04-08T09:25:27.988Z,3.25
2023-04-08T09:30:33.891Z,3.10
2023-04-08T09:35:38.943Z,4.20
2023-04-08T09:40:44.534Z,4.07
2023-04-08T09:45:48.997Z,4.40
2023-04-08T09:55:59.341Z,4.60
2023-04-08T10:01:03.952Z,4.78
2023-04-08T10:11:15.971Z,4.95
2023-04-08T10:16:24.844Z,5.68
2023-04-08T10:21:42.684Z,4.43
2023-04-08T10:26:48.981Z,4.90
2023-04-08T10:31:53.054Z,4.80
2023-04-08T10:37:02.275Z,5.38
2023-04-08T10:42:09.733Z,4.90
2023-04-08T10:47:13.793Z,5.30
2023-04-08T10:52:20.136Z,5.32
2023-04-08T10:57:27.165Z,5.45
2023-04-08T11:02:34.994Z,4.57
2023-04-08T11:07:43.093Z,4.70
2023-04-08T11:12:47.102Z,4.93
2023-04-08T11:17:51.411Z,4.35
2023-04-08T11:22:56.629Z,5.45
2023-04-08T11:28:00.425Z,4.88
2023-04-08T11:33:04.078Z,5.13
2023-04-08T11:38:10.174Z,5.13
2023-04-08T11:43:15.542Z,6.18
2023-04-08T11:48:19.333Z,5.72
2023-04-08T11:53:27.195Z,6.40
2023-04-08T11:58:30.960Z,6.28
2023-04-08T12:03:34.564Z,6.30
2023-04-08T12:08:39.552Z,6.37
2023-04-08T12:13:42.982Z,6.40
2023-04-08T12:18:46.825Z,6.63
2023-04-08T12:23:52.502Z,7.30
2023-04-08T12:28:56.423Z,6.57
2023-04-08T12:33:59.953Z,7.03
2023-04-08T12:39:05.223Z,7.15
2023-04-08T12:44:08.632Z,7.20
2023-04-08T12:49:12.301Z,6.85
2023-04-08T12:54:17.326Z,7.35
2023-04-08T12:59:20.736Z,6.85
2023-04-08T13:04:24.176Z,6.78
2023-04-08T13:09:30.844Z,6.38
2023-04-08T13:14:34.348Z,6.65
2023-04-08T13:19:37.977Z,7.05
2023-04-08T13:24:43.144Z,5.65
2023-04-08T13:29:46.648Z,6.60
2023-04-08T13:34:50.113Z,6.78
2023-04-08T13:39:54.969Z,7.07
2023-04-08T13:44:58.623Z,7.18
2023-04-08T13:50:02.090Z,6.90
2023-04-08T13:55:09.610Z,6.85
2023-04-08T14:00:14.129Z,6.93
2023-04-08T14:05:17.748Z,6.40
2023-04-08T14:10:22.752Z,6.43
2023-04-08T14:15:26.333Z,6.80
2023-04-08T14:20:30.007Z,7.00
2023-04-08T14:25:34.960Z,6.57
2023-04-08T14:30:39.152Z,6.88
2023-04-08T14:35:42.762Z,7.28
2023-04-08T14:40:47.630Z,6.63
2023-04-08T14:45:51.749Z,6.40
2023-04-08T14:50:55.317Z,7.75
2023-04-08T14:56:00.150Z,7.60
2023-04-08T15:01:03.691Z,7.60
2023-04-08T15:06:07.462Z,7.75
2023-04-08T15:11:12.345Z,7.07
2023-04-08T15:16:15.948Z,6.65
2023-04-08T15:21:19.574Z,6.45
2023-04-08T15:26:24.612Z,7.32
2023-04-08T15:31:28.076Z,6.40
2023-04-08T15:36:32.310Z,6.93
2023-04-08T15:41:37.173Z,7.53
2023-04-08T15:46:40.742Z,6.85
2023-04-08T15:51:44.897Z,7.47
2023-04-08T15:56:49.950Z,8.00
2023-04-08T16:01:53.567Z,8.60
2023-04-08T16:06:57.212Z,8.88
2023-04-08T16:12:02.038Z,7.90
2023-04-08T16:17:05.835Z,7.63
2023-04-08T16:22:09.314Z,8.13
2023-04-08T16:27:14.284Z,8.48
2023-04-08T16:32:17.905Z,8.30
2023-04-08T16:37:21.408Z,8.32
2023-04-08T16:42:26.358Z,8.38
2023-04-08T16:47:29.939Z,8.68
2023-04-08T16:52:33.460Z,8.93
2023-04-08T16:57:38.371Z,7.13
2023-04-08T17:07:45.548Z,7.03
2023-04-08T17:12:50.517Z,6.77
2023-04-08T17:17:53.987Z,7.32
2023-04-08T17:22:57.466Z,7.85
2023-04-08T17:28:02.321Z,7.25
2023-04-08T17:38:09.087Z,7.63
2023-04-08T17:43:14.038Z,8.27
2023-04-08T17:48:17.715Z,9.30
2023-04-08T17:53:21.134Z,9.98
2023-04-08T17:58:26.495Z,9.57
2023-04-08T18:03:30.125Z,10.07
2023-04-08T18:08:33.744Z,10.07
2023-04-08T18:13:38.635Z,10.52
2023-04-08T18:18:42.296Z,10.10
2023-04-08T18:23:47.181Z,12.73
2023-04-08T18:33:55.165Z,13.60
2023-04-08T18:38:59.019Z,15.75
2023-04-08T18:44:04.264Z,15.68
2023-04-08T18:49:07.849Z,15.85
2023-04-08T18:54:11.270Z,15.82
2023-04-08T18:59:16.553Z,14.82
2023-04-08T19:04:20.076Z,11.27
2023-04-08T19:09:23.688Z,11.88
2023-04-08T19:14:28.529Z,11.57
2023-04-08T19:19:32.791Z,11.27
2023-04-08T19:24:36.823Z,10.38
2023-04-08T19:29:41.746Z,10.83
2023-04-08T19:34:45.155Z,11.15
2023-04-08T19:39:48.555Z,10.75
2023-04-08T19:44:53.381Z,12.05
2023-04-08T19:49:58.412Z,11.68
2023-04-08T19:55:02.536Z,11.07
2023-04-08T20:00:11.679Z,11.15
2023-04-08T20:05:17.505Z,11.60
2023-04-08T20:10:21.938Z,12.20
2023-04-08T20:15:26.881Z,12.38
2023-04-08T20:25:33.705Z,12.77
2023-04-08T20:30:38.723Z,12.77
2023-04-08T20:40:46.440Z,12.30
2023-04-08T20:45:51.249Z,13.45
2023-04-08T20:50:54.909Z,12.32
2023-04-08T20:55:58.483Z,13.85
2023-04-08T21:01:03.478Z,13.13
2023-04-08T21:11:10.154Z,12.48
2023-04-08T21:16:15.095Z,13.52
2023-04-08T21:26:22.390Z,15.55
2023-04-08T21:31:27.523Z,14.23
2023-04-08T21:41:35.024Z,14.32
2023-04-08T21:46:39.981Z,14.23
2023-04-08T21:56:46.758Z,14.90
2023-04-08T22:01:51.720Z,13.57
2023-04-08T22:06:55.253Z,13.93
2023-04-08T22:11:58.694Z,14.88
2023-04-08T22:17:04.648Z,16.42
2023-04-08T22:22:08.369Z,16.15
2023-04-08T22:27:11.843Z,14.10
2023-04-08T22:32:18.309Z,14.27
2023-04-08T22:37:22.005Z,16.05
2023-04-08T22:42:25.607Z,14.55
2023-04-08T22:47:30.515Z,14.40
2023-04-08T22:57:37.111Z,13.68
2023-04-08T23:02:42.026Z,15.70
2023-04-08T23:12:48.667Z,14.18
2023-04-08T23:17:53.665Z,13.15
2023-04-08T23:22:57.206Z,14.25
2023-04-08T23:28:01.768Z,14.10
2023-04-08T23:33:06.820Z,15.73
2023-04-08T23:43:13.560Z,15.18
2023-04-08T23:48:18.452Z,14.77
2023-04-08T23:58:25.214Z,14.10
